Time;durP1;ratioP1;P1;durP2;ratioP2;P2;SDS_P1;SDS_P2;PMS_P1;PMS_P2;Temp;Humidity;BMP_temperature;BMP_pressure;BME280_temperature;BME280_humidity;BME280_pressure;Samples;Min_cycle;Max_cycle;Signal;HPM_P1;HPM_P2
2021/12/13 00:00:38;;;;;;;;;;;;;;;;;;;;;
2021/12/13 00:04:30;;;;;;;;;;;;;;;;;;;;;
2021/12/13 00:07:54;;;;;;;199.40;118.20;;;;;;;-4.58;78.13;101304.36;107907;1290;22055;-75
2021/12/13 00:11:41;;;;;;;203.20;122.90;;;;;;;-4.58;78.33;101309.01;107905;1284;21985;-76
2021/12/13 00:14:56;;;;;;;204.10;120.20;;;;;;;-4.56;78.45;101309.79;108094;1288;23070;-76
2021/12/13 00:18:26;;;;;;;201.10;117.50;;;;;;;-4.53;78.60;101310.75;108158;1282;22632;-76
2021/12/13 00:21:23;;;;;;;196.10;121.90;;;;;;;-4.52;78.51;101314.81;108400;1283;21993;-76
2021/12/13 00:24:46;;;;;;;;;;;;;;;;;;;;;
2021/12/13 00:28:05;;;;;;;176.60;108.20;;;;;;;-4.52;78.48;101308.45;107907;1291;22022;-75
2021/12/13 00:31:24;;;;;;;188.10;112.70;;;;;;;-4.49;78.68;101307.34;107945;1291;22005;-75
2021/12/13 00:35:04;;;;;;;174.10;111.30;;;;;;;-4.47;78.62;101308.66;107457;1298;22906;-76
2021/12/13 00:37:58;;;;;;;176.60;112.10;;;;;;;-4.45;78.67;101299.98;107239;1298;22138;-76
2021/12/13 00:40:56;;;;;;;168.20;106.60;;;;;;;-4.45;78.61;101304.30;107489;1296;22009;-76
2021/12/13 00:48:51;;;;;;;168.20;104.40;;;;;;;-4.35;78.83;101314.27;108061;1289;21994;-76
2021/12/13 00:52:46;;;;;;;161.60;105.70;;;;;;;-4.21;79.05;101309.89;108239;1282;22394;-76
2021/12/13 00:56:30;;;;;;;153.50;99.00;;;;;;;-4.10;78.95;101317.77;108631;1281;23562;-76
2021/12/13 01:00:03;;;;;;;;;;;;;;;;;;;;;
2021/12/13 01:07:41;;;;;;;219.00;149.60;;;;;;;-3.89;78.94;101327.75;108307;1285;22008;-76
2021/12/13 01:10:56;;;;;;;184.30;113.50;;;;;;;-3.80;78.80;101328.30;107614;1294;23597;-76
2021/12/13 01:18:15;;;;;;;181.80;109.70;;;;;;;-3.88;78.40;101324.77;107680;1294;23696;-77
2021/12/13 01:22:19;;;;;;;187.90;113.40;;;;;;;-3.85;78.62;101318.98;103535;1294;23803;-77
2021/12/13 01:25:14;;;;;;;;;;;;;;;;;;;;;
2021/12/13 01:28:40;;;;;;;166.20;105.10;;;;;;;-3.80;78.40;101317.80;107372;1296;23073;-77
2021/12/13 01:32:16;;;;;;;161.50;106.50;;;;;;;-3.77;78.64;101317.52;107396;1296;21990;-76
2021/12/13 01:39:15;;;;;;;161.20;108.30;;;;;;;-3.55;78.67;101319.52;105392;1316;547177;-74
2021/12/13 01:42:08;;;;;;;143.40;98.40;;;;;;;-3.56;78.27;101313.86;107853;1292;23086;-75
2021/12/13 01:45:26;;;;;;;;;;;;;;;;;;;;;
2021/12/13 01:49:24;;;;;;;;;;;;;;;;;;;;;
2021/12/13 01:52:51;;;;;;;;;;;;;;;;;;;;;
2021/12/13 01:57:22;;;;;;;152.10;95.70;;;;;;;-3.59;78.57;101309.99;108879;1276;22005;-75
2021/12/13 02:04:10;;;;;;;143.80;96.20;;;;;;;-3.63;78.67;101307.04;108195;1288;21983;-76
2021/12/13 02:08:28;;;;;;;147.40;95.40;;;;;;;-3.61;78.91;101304.58;107521;1294;22021;-76
2021/12/13 02:11:34;;;;;;;;;;;;;;;;;;;;;
2021/12/13 02:19:36;;;;;;;;;;;;;;;;;;;;;
2021/12/13 02:23:12;;;;;;;165.10;109.30;;;;;;;-3.46;79.14;101309.55;106420;1306;23808;-75
2021/12/13 02:26:24;;;;;;;160.60;100.90;;;;;;;-3.41;79.15;101306.44;106730;1302;22002;-75
2021/12/13 02:30:08;;;;;;;148.50;100.90;;;;;;;-3.39;79.01;101308.27;106396;1305;22023;-76
2021/12/13 02:33:31;;;;;;;144.60;100.50;;;;;;;-3.36;79.09;101313.84;107079;1300;22005;-75
2021/12/13 02:36:52;;;;;;;148.30;98.60;;;;;;;-3.32;79.07;101313.36;107186;1297;22063;-76
2021/12/13 02:39:53;;;;;;;147.70;100.10;;;;;;;-3.28;79.05;101311.33;107288;1297;23608;-75
2021/12/13 02:43:20;;;;;;;151.60;103.10;;;;;;;-3.19;79.18;101313.77;107476;1294;22015;-77
2021/12/13 02:47:13;;;;;;;148.70;96.90;;;;;;;-3.15;79.09;101314.46;107673;1294;22029;-74
2021/12/13 02:50:12;;;;;;;142.80;97.90;;;;;;;-3.11;79.25;101315.67;107868;1291;22153;-75
2021/12/13 02:53:00;;;;;;;144.10;95.90;;;;;;;-3.04;79.24;101315.63;107988;1291;21993;-76
2021/12/13 02:56:23;;;;;;;;;;;;;;;;;;;;;
2021/12/13 02:59:28;;;;;;;133.50;95.60;;;;;;;-2.94;79.15;101307.11;107477;1296;22108;-75
2021/12/13 03:02:35;;;;;;;150.00;99.80;;;;;;;-2.91;79.15;101302.55;107863;1291;22112;-75
2021/12/13 03:05:43;;;;;;;143.00;98.10;;;;;;;-2.90;79.12;101299.05;108158;1286;21982;-80
2021/12/13 03:09:00;;;;;;;144.30;97.40;;;;;;;-2.94;78.94;101297.80;108474;1283;22037;-80
2021/12/13 03:11:52;;;;;;;143.80;97.10;;;;;;;-2.92;79.20;101297.03;107993;1290;22098;-75
2021/12/13 03:14:40;;;;;;;144.70;98.90;;;;;;;-2.89;79.19;101298.13;107951;1290;23637;-75
2021/12/13 03:17:55;;;;;;;144.40;98.70;;;;;;;-2.87;79.19;101298.90;108035;1291;22014;-76
2021/12/13 03:21:16;;;;;;;138.00;96.50;;;;;;;-2.84;79.31;101296.89;108114;1283;23713;-76
2021/12/13 03:24:09;;;;;;;142.90;96.40;;;;;;;-2.83;79.14;101299.63;108400;1283;21977;-75
2021/12/13 03:27:24;;;;;;;156.20;108.20;;;;;;;-2.81;79.25;101298.89;108436;1283;22015;-75
2021/12/13 03:30:14;;;;;;;141.00;100.10;;;;;;;-2.81;79.16;101306.48;108413;1283;24318;-75
2021/12/13 03:33:09;;;;;;;149.80;102.20;;;;;;;-2.83;79.15;101301.21;108328;1283;22737;-75
2021/12/13 03:35:56;;;;;;;141.70;99.00;;;;;;;-2.86;79.12;101306.10;108162;1288;23064;-75
2021/12/13 03:38:46;;;;;;;148.70;101.30;;;;;;;-2.85;79.31;101306.08;108145;1286;22014;-75
2021/12/13 03:41:25;;;;;;;147.90;101.70;;;;;;;-2.81;79.37;101306.80;108207;1283;21983;-74
2021/12/13 03:44:21;;;;;;;148.40;98.20;;;;;;;-2.75;79.51;101306.27;108479;1282;22048;-74
2021/12/13 03:47:08;;;;;;;140.90;98.20;;;;;;;-2.71;79.53;101299.86;108460;1282;23582;-75
2021/12/13 03:49:52;;;;;;;147.00;101.70;;;;;;;-2.67;79.54;101301.42;108459;1282;23069;-76
2021/12/13 03:52:27;;;;;;;141.30;98.50;;;;;;;-2.65;79.50;101299.12;108321;1285;22012;-76
2021/12/13 03:55:00;;;;;;;140.00;98.10;;;;;;;-2.61;79.66;101299.64;108436;1284;21982;-77
2021/12/13 03:57:45;;;;;;;138.80;98.10;;;;;;;-2.53;79.69;101295.38;108220;1285;22719;-77
2021/12/13 04:00:21;;;;;;;141.50;95.20;;;;;;;-2.47;79.71;101295.28;108392;1287;21998;-75
2021/12/13 04:03:00;;;;;;;138.60;96.30;;;;;;;-2.40;79.69;101295.16;107847;1294;24056;-76
2021/12/13 04:05:32;;;;;;;133.40;95.80;;;;;;;-2.33;79.67;101293.70;107490;1294;22066;-76
2021/12/13 04:08:10;;;;;;;132.50;93.30;;;;;;;-2.33;79.40;101289.21;107801;1294;21992;-76
2021/12/13 04:10:58;;;;;;;131.70;94.00;;;;;;;-2.37;79.27;101288.33;107848;1290;23773;-75
2021/12/13 04:13:42;;;;;;;133.00;93.10;;;;;;;-2.37;79.43;101292.99;108074;1288;23697;-75
2021/12/13 04:17:06;;;;;;;129.40;93.20;;;;;;;-2.34;79.46;101301.86;107748;1291;23624;-75
2021/12/13 04:20:07;;;;;;;;;;;;;;;;;;;;;
2021/12/13 04:23:06;;;;;;;124.20;89.60;;;;;;;-2.37;79.22;101302.14;108349;1284;23037;-75
2021/12/13 04:25:57;;;;;;;;;;;;;;;;;;;;;
2021/12/13 04:29:01;;;;;;;129.20;92.60;;;;;;;-2.35;79.36;101308.27;108383;1284;22852;-75
2021/12/13 04:31:43;;;;;;;137.10;95.40;;;;;;;-2.40;79.33;101306.23;108340;1285;21990;-75
2021/12/13 04:34:20;;;;;;;141.90;95.90;;;;;;;-2.43;79.38;101303.94;108410;1279;22013;-75
2021/12/13 04:37:35;;;;;;;139.40;98.20;;;;;;;-2.44;79.53;101306.73;108591;1278;22062;-75
2021/12/13 04:40:25;;;;;;;137.90;98.10;;;;;;;-2.42;79.66;101307.15;108872;1277;21990;-75
2021/12/13 04:43:15;;;;;;;149.50;105.10;;;;;;;-2.38;79.76;101308.73;108700;1277;22030;-75
2021/12/13 04:46:00;;;;;;;148.10;100.70;;;;;;;-2.37;79.83;101306.96;108850;1277;23616;-75
2021/12/13 04:48:41;;;;;;;130.30;95.50;;;;;;;-2.35;79.85;101308.27;108748;1277;23618;-75
2021/12/13 04:51:22;;;;;;;142.20;100.90;;;;;;;-2.35;79.83;101310.70;108773;1277;21976;-75
2021/12/13 04:54:46;;;;;;;146.40;102.50;;;;;;;-2.36;79.72;101312.80;108700;1277;23056;-75
2021/12/13 04:57:50;;;;;;;;;;;;;;;;;;;;;
2021/12/13 05:00:49;;;;;;;138.40;99.20;;;;;;;-2.31;79.96;101309.17;108261;1287;22040;-76
2021/12/13 05:03:54;;;;;;;136.00;98.30;;;;;;;-2.29;80.09;101312.35;107985;1289;22026;-75
2021/12/13 05:06:48;;;;;;;130.80;96.20;;;;;;;-2.29;80.03;101313.71;107635;1295;22002;-76
2021/12/13 05:09:36;;;;;;;137.70;98.80;;;;;;;-2.28;80.07;101315.05;107583;1295;22004;-76
2021/12/13 05:12:30;;;;;;;139.00;99.90;;;;;;;-2.25;80.03;101317.89;107523;1295;22004;-75
2021/12/13 05:15:15;;;;;;;135.10;102.50;;;;;;;-2.22;80.18;101322.23;106965;1298;23190;-76
2021/12/13 05:18:29;;;;;;;146.90;105.10;;;;;;;-2.15;80.22;101326.29;106855;1298;23839;-75
2021/12/13 05:21:09;;;;;;;192.40;128.10;;;;;;;-2.09;80.31;101327.93;107221;1295;21995;-76
2021/12/13 05:23:55;;;;;;;189.20;127.30;;;;;;;-2.00;80.51;101334.12;107372;1298;22819;-75
2021/12/13 05:26:56;;;;;;;176.60;128.70;;;;;;;-1.90;80.47;101335.07;107670;1290;23094;-75
2021/12/13 05:29:37;;;;;;;222.40;169.30;;;;;;;-1.80;80.61;101334.48;107804;1292;21993;-75
2021/12/13 05:32:31;;;;;;;162.50;114.90;;;;;;;-1.71;80.58;101331.34;107852;1292;22013;-75
2021/12/13 05:35:13;;;;;;;152.10;112.70;;;;;;;-1.70;80.24;101327.17;108201;1287;23626;-75
2021/12/13 05:38:01;;;;;;;138.40;101.90;;;;;;;-1.73;80.09;101327.98;108326;1286;22019;-75
2021/12/13 05:40:43;;;;;;;136.30;100.40;;;;;;;-1.79;79.97;101326.86;108100;1288;22030;-76
2021/12/13 05:43:48;;;;;;;136.80;101.60;;;;;;;-1.82;80.14;101332.34;108287;1287;21998;-77
2021/12/13 05:46:45;;;;;;;151.00;107.10;;;;;;;-1.84;80.22;101333.83;108328;1287;22029;-76
2021/12/13 05:49:33;;;;;;;166.70;126.90;;;;;;;-1.83;80.33;101336.02;108191;1287;23746;-77
2021/12/13 05:52:28;;;;;;;147.00;105.80;;;;;;;-1.83;80.38;101341.89;108246;1286;21995;-77
2021/12/13 05:55:16;;;;;;;200.70;146.80;;;;;;;-1.85;80.29;101340.58;108318;1281;21979;-75
2021/12/13 05:58:03;;;;;;;149.70;106.60;;;;;;;-1.85;80.39;101342.65;108605;1281;22033;-76
2021/12/13 06:00:41;;;;;;;220.60;139.00;;;;;;;-1.85;80.45;101349.91;108540;1277;22042;-76
2021/12/13 06:03:18;;;;;;;262.20;176.90;;;;;;;-1.84;80.52;101348.45;108861;1276;23040;-76
2021/12/13 06:06:28;;;;;;;413.00;322.10;;;;;;;-1.78;80.78;101352.18;108775;1277;21986;-76
2021/12/13 06:09:43;;;;;;;220.40;142.30;;;;;;;-1.70;80.79;101350.63;108846;1277;22850;-76
2021/12/13 06:12:34;;;;;;;245.40;135.90;;;;;;;-1.66;80.73;101356.51;108910;1277;21972;-76
2021/12/13 06:15:34;;;;;;;247.60;138.70;;;;;;;-1.66;80.58;101359.79;108941;1275;23569;-77
2021/12/13 06:18:20;;;;;;;197.50;122.00;;;;;;;-1.63;80.70;101366.08;108482;1281;21996;-76
2021/12/13 06:21:33;;;;;;;158.30;105.80;;;;;;;-1.59;80.77;101368.15;108511;1282;21986;-77
2021/12/13 06:24:53;;;;;;;146.40;104.00;;;;;;;-1.58;80.61;101374.52;108625;1281;22014;-76
2021/12/13 06:27:55;;;;;;;149.60;101.70;;;;;;;-1.60;80.68;101376.49;108751;1279;22046;-75
2021/12/13 06:30:38;;;;;;;151.50;101.30;;;;;;;-1.63;80.71;101382.63;108657;1281;24433;-76
2021/12/13 06:33:13;;;;;;;155.10;98.60;;;;;;;-1.63;80.74;101383.89;108560;1281;22025;-76
2021/12/13 06:35:57;;;;;;;143.10;100.50;;;;;;;-1.65;80.73;101386.52;108171;1281;22001;-76
2021/12/13 06:38:47;;;;;;;151.40;106.30;;;;;;;-1.67;80.67;101389.73;108642;1281;22160;-76
2021/12/13 06:41:38;;;;;;;168.50;111.80;;;;;;;-1.68;80.86;101392.70;108688;1281;22010;-75
2021/12/13 06:44:29;;;;;;;153.60;105.00;;;;;;;-1.66;81.09;101393.66;108683;1281;23590;-76
2021/12/13 06:47:21;;;;;;;158.10;106.70;;;;;;;-1.67;80.98;101395.08;108584;1281;23032;-76
2021/12/13 06:50:17;;;;;;;165.30;111.20;;;;;;;-1.70;80.90;101396.58;108626;1281;23229;-75
2021/12/13 06:53:07;;;;;;;182.80;113.70;;;;;;;-1.71;81.09;101395.23;108554;1280;21987;-76
2021/12/13 06:55:45;;;;;;;198.30;123.70;;;;;;;-1.70;81.16;101391.55;108507;1280;22009;-76
2021/12/13 06:58:29;;;;;;;173.80;115.30;;;;;;;-1.71;81.12;101391.10;108715;1279;23675;-76
2021/12/13 07:01:09;;;;;;;202.10;143.10;;;;;;;-1.70;81.27;101395.89;108810;1278;22745;-76
2021/12/13 07:03:52;;;;;;;185.40;127.00;;;;;;;-1.67;81.31;101399.92;108528;1280;23135;-77
2021/12/13 07:06:21;;;;;;;152.90;108.00;;;;;;;-1.64;81.38;101401.52;108553;1282;22745;-76
2021/12/13 07:09:05;;;;;;;187.80;120.40;;;;;;;-1.62;81.46;101398.35;108418;1282;22995;-76
2021/12/13 07:11:43;;;;;;;186.90;122.20;;;;;;;-1.60;81.48;101397.02;108631;1282;23152;-76
2021/12/13 07:14:19;;;;;;;172.80;117.80;;;;;;;-1.54;81.59;101400.59;108750;1277;21987;-77
2021/12/13 07:16:53;;;;;;;170.00;116.20;;;;;;;-1.50;81.58;101402.99;108949;1277;22929;-77
2021/12/13 07:19:30;;;;;;;170.20;117.30;;;;;;;-1.48;81.50;101406.89;108735;1278;21970;-77
2021/12/13 07:22:08;;;;;;;207.20;135.40;;;;;;;-1.48;81.54;101408.95;108940;1277;22297;-77
2021/12/13 07:25:06;;;;;;;334.80;205.90;;;;;;;-1.50;81.59;101412.17;108893;1278;22352;-75
2021/12/13 07:27:48;;;;;;;168.10;116.10;;;;;;;-1.52;81.56;101416.56;108444;1284;22314;-79
2021/12/13 07:30:29;;;;;;;171.20;117.90;;;;;;;-1.46;81.96;101423.20;108524;1282;22020;-76
2021/12/13 07:33:13;;;;;;;174.60;115.40;;;;;;;-1.45;81.77;101434.05;108743;1281;23338;-76
2021/12/13 07:35:53;;;;;;;172.50;119.50;;;;;;;-1.45;81.72;101437.02;108491;1282;22041;-76
2021/12/13 07:38:57;;;;;;;159.70;107.10;;;;;;;-1.46;81.80;101439.46;108565;1282;23063;-77
2021/12/13 07:41:55;;;;;;;178.10;123.90;;;;;;;-1.48;81.78;101439.34;108438;1282;23093;-75
2021/12/13 07:44:48;;;;;;;167.20;111.70;;;;;;;-1.47;81.86;101442.08;108476;1282;22318;-76
2021/12/13 07:47:24;;;;;;;169.10;118.70;;;;;;;-1.43;82.08;101441.60;109034;1275;23684;-76
2021/12/13 07:49:59;;;;;;;172.00;117.20;;;;;;;-1.36;82.28;101441.81;108987;1275;21989;-75
2021/12/13 07:52:41;;;;;;;206.00;142.40;;;;;;;-1.28;82.31;101446.16;108952;1275;22038;-75
2021/12/13 07:55:26;;;;;;;251.00;147.40;;;;;;;-1.20;82.43;101447.20;108931;1275;21990;-75
2021/12/13 07:58:02;;;;;;;194.00;130.00;;;;;;;-1.15;82.28;101446.11;108934;1275;23071;-78
2021/12/13 08:00:40;;;;;;;186.50;125.90;;;;;;;-1.10;82.37;101450.04;109142;1275;21973;-75
2021/12/13 08:03:14;;;;;;;200.90;132.90;;;;;;;-1.06;82.19;101449.86;109045;1275;21980;-76
2021/12/13 08:05:55;;;;;;;197.10;133.70;;;;;;;-1.05;82.12;101449.46;108539;1282;23663;-76
2021/12/13 08:08:32;;;;;;;212.90;140.90;;;;;;;-1.06;82.00;101449.67;108528;1282;21991;-76
2021/12/13 08:11:08;;;;;;;230.10;160.20;;;;;;;-1.03;82.12;101454.05;108499;1283;23048;-76
2021/12/13 08:13:59;;;;;;;232.20;161.00;;;;;;;-0.98;82.23;101456.27;108453;1283;22012;-77
2021/12/13 08:17:07;;;;;;;251.60;175.70;;;;;;;-0.87;82.37;101457.89;108483;1281;23647;-76
2021/12/13 08:20:11;;;;;;;226.30;147.10;;;;;;;-0.77;82.37;101458.13;108495;1279;22427;-77
2021/12/13 08:23:04;;;;;;;207.60;138.40;;;;;;;-0.71;82.25;101460.78;108420;1276;21995;-76
2021/12/13 08:26:01;;;;;;;210.90;142.00;;;;;;;-0.68;82.21;101462.19;108839;1277;22210;-76
2021/12/13 08:28:57;;;;;;;200.80;144.20;;;;;;;-0.64;82.09;101465.83;108837;1277;23650;-77
2021/12/13 08:31:39;;;;;;;206.70;143.00;;;;;;;-0.59;82.21;101471.00;108851;1277;21985;-77
2021/12/13 08:34:31;;;;;;;182.90;131.10;;;;;;;-0.54;82.15;101470.02;108908;1275;21969;-75
2021/12/13 08:37:31;;;;;;;180.70;125.90;;;;;;;-0.53;82.00;101469.13;108599;1280;23787;-76
2021/12/13 08:40:19;;;;;;;178.70;121.00;;;;;;;-0.53;81.99;101464.84;108491;1282;22009;-76
2021/12/13 08:42:52;;;;;;;187.40;129.70;;;;;;;-0.53;81.99;101466.38;108541;1281;23691;-75
2021/12/13 08:45:39;;;;;;;190.70;135.10;;;;;;;-0.51;82.16;101465.41;108563;1282;23741;-75
2021/12/13 08:48:20;;;;;;;194.70;139.10;;;;;;;-0.45;82.23;101468.63;108473;1282;23817;-71
2021/12/13 08:50:59;;;;;;;197.00;143.40;;;;;;;-0.40;82.31;101471.00;108162;1288;22629;-75
2021/12/13 08:53:36;;;;;;;226.70;158.90;;;;;;;-0.33;82.31;101467.23;108381;1288;22785;-76
2021/12/13 08:56:20;;;;;;;209.60;155.00;;;;;;;-0.27;82.31;101468.48;108420;1282;22303;-75
2021/12/13 08:59:05;;;;;;;219.50;150.10;;;;;;;-0.21;82.11;101473.77;108599;1281;23016;-77
2021/12/13 09:02:03;;;;;;;214.90;151.40;;;;;;;-0.15;82.26;101477.61;108503;1282;22042;-77
2021/12/13 09:04:53;;;;;;;213.80;144.30;;;;;;;-0.07;82.23;101476.73;108528;1282;21998;-76
2021/12/13 09:07:28;;;;;;;198.10;142.60;;;;;;;-0.02;82.22;101480.43;108513;1282;22018;-77
2021/12/13 09:09:58;;;;;;;215.70;152.90;;;;;;;0.04;82.24;101482.27;108912;1277;22756;-75
2021/12/13 09:12:42;;;;;;;218.00;149.10;;;;;;;0.13;82.33;101484.63;108889;1277;22006;-75
2021/12/13 09:15:30;;;;;;;221.30;157.10;;;;;;;0.22;82.16;101487.11;108858;1277;23027;-75
2021/12/13 09:18:01;;;;;;;228.50;161.70;;;;;;;0.32;82.18;101484.23;108826;1277;21998;-76
2021/12/13 09:21:00;;;;;;;236.00;171.70;;;;;;;0.41;82.20;101484.30;108793;1278;22405;-76
2021/12/13 09:23:52;;;;;;;237.40;166.60;;;;;;;0.51;82.11;101489.73;108709;1278;23543;-75
2021/12/13 09:26:27;;;;;;;235.00;174.20;;;;;;;0.57;81.90;101487.67;108739;1278;24410;-75
2021/12/13 09:29:06;;;;;;;237.60;175.70;;;;;;;0.65;81.92;101485.04;108821;1277;23064;-76
2021/12/13 09:31:54;;;;;;;226.50;166.50;;;;;;;0.76;81.94;101484.33;108793;1277;24307;-76
2021/12/13 09:34:25;;;;;;;205.80;150.40;;;;;;;0.84;81.88;101480.11;108811;1278;23784;-76
2021/12/13 09:37:07;;;;;;;224.60;160.10;;;;;;;0.88;81.64;101475.03;108763;1278;23043;-76
2021/12/13 09:39:36;;;;;;;213.00;150.20;;;;;;;0.90;81.58;101470.23;108795;1277;22230;-75
2021/12/13 09:42:16;;;;;;;199.40;140.50;;;;;;;0.96;81.57;101467.86;108863;1278;22041;-76
2021/12/13 09:44:55;;;;;;;200.50;146.30;;;;;;;0.98;81.35;101471.24;108825;1277;24426;-76
2021/12/13 09:47:38;;;;;;;204.50;150.90;;;;;;;0.99;81.29;101471.38;108799;1277;22038;-76
2021/12/13 09:50:20;;;;;;;206.00;148.00;;;;;;;1.03;81.37;101470.96;108811;1277;22002;-76
2021/12/13 09:52:59;;;;;;;186.50;139.00;;;;;;;1.07;81.18;101474.73;108580;1278;212694;-76
2021/12/13 09:55:41;;;;;;;201.00;147.00;;;;;;;1.09;81.06;101479.88;108810;1278;23580;-75
2021/12/13 09:58:23;;;;;;;187.90;140.90;;;;;;;1.05;80.72;101480.05;108846;1278;22330;-75
2021/12/13 10:01:03;;;;;;;215.90;162.60;;;;;;;1.01;80.66;101484.98;108928;1277;23910;-75
2021/12/13 10:03:49;;;;;;;215.90;161.10;;;;;;;1.00;80.77;101487.61;108769;1277;23614;-75
2021/12/13 10:06:26;;;;;;;224.00;171.00;;;;;;;1.04;81.05;101493.63;108344;1283;22001;-76
2021/12/13 10:09:11;;;;;;;243.00;187.60;;;;;;;1.13;81.14;101496.68;108453;1283;22105;-76
2021/12/13 10:11:59;;;;;;;237.60;185.10;;;;;;;1.17;80.98;101498.36;108535;1283;22093;-76
2021/12/13 10:14:36;;;;;;;247.50;178.40;;;;;;;1.22;81.07;101497.73;108402;1283;21983;-76
2021/12/13 10:17:13;;;;;;;239.90;170.90;;;;;;;1.26;80.82;101500.84;108573;1283;22206;-76
2021/12/13 10:19:54;;;;;;;248.30;187.50;;;;;;;1.31;80.85;101503.19;108474;1283;22344;-75
2021/12/13 10:22:30;;;;;;;231.50;171.60;;;;;;;1.33;80.63;101498.23;108421;1283;22088;-75
2021/12/13 10:25:19;;;;;;;221.40;164.50;;;;;;;1.31;80.39;101500.21;108619;1278;21987;-76
2021/12/13 10:27:54;;;;;;;236.40;169.70;;;;;;;1.31;80.44;101503.86;108882;1277;22766;-75
2021/12/13 10:30:55;;;;;;;238.30;166.70;;;;;;;1.30;80.41;101503.23;108832;1278;22738;-76
2021/12/13 10:33:26;;;;;;;231.60;164.00;;;;;;;1.25;80.13;101497.59;108571;1282;23736;-76
2021/12/13 10:35:56;;;;;;;219.80;158.70;;;;;;;1.18;80.07;101499.48;108582;1281;22117;-76
2021/12/13 10:38:39;;;;;;;234.00;167.50;;;;;;;1.12;79.88;101502.77;108420;1282;23730;-75
2021/12/13 10:41:23;;;;;;;239.70;167.90;;;;;;;1.07;79.97;101501.80;108417;1283;24474;-76
2021/12/13 10:43:58;;;;;;;232.30;168.70;;;;;;;1.07;80.20;101502.18;108540;1282;23005;-75
2021/12/13 10:46:35;;;;;;;235.60;171.00;;;;;;;1.11;80.47;101503.89;108526;1282;22025;-76
2021/12/13 10:49:10;;;;;;;243.70;173.00;;;;;;;1.19;80.68;101500.02;108428;1283;22112;-75
2021/12/13 10:51:51;;;;;;;240.90;177.20;;;;;;;1.27;80.66;101493.85;108631;1277;23040;-76
2021/12/13 10:54:34;;;;;;;242.80;178.70;;;;;;;1.34;80.63;101492.79;108818;1277;22001;-75
2021/12/13 10:57:28;;;;;;;242.10;176.70;;;;;;;1.41;80.81;101493.81;108791;1277;22225;-76
2021/12/13 11:00:09;;;;;;;243.80;178.60;;;;;;;1.47;80.66;101492.83;108828;1277;22840;-75
2021/12/13 11:02:42;;;;;;;238.00;173.90;;;;;;;1.46;80.47;101488.16;108905;1277;23906;-75
2021/12/13 11:05:18;;;;;;;244.30;173.60;;;;;;;1.46;80.31;101490.59;108910;1277;23687;-75
2021/12/13 11:07:50;;;;;;;243.50;176.50;;;;;;;1.44;80.12;101487.04;108913;1277;21995;-75
2021/12/13 11:10:38;;;;;;;241.00;176.10;;;;;;;1.45;80.16;101485.10;108890;1277;22032;-75
2021/12/13 11:13:30;;;;;;;244.70;180.70;;;;;;;1.47;80.35;101481.67;108852;1276;23111;-75
2021/12/13 11:16:22;;;;;;;260.80;183.10;;;;;;;1.53;80.51;101476.70;108767;1278;22745;-75
2021/12/13 11:18:52;;;;;;;269.60;186.00;;;;;;;1.58;80.55;101470.99;108801;1277;22007;-75
2021/12/13 11:21:34;;;;;;;273.40;195.00;;;;;;;1.64;80.50;101466.36;108779;1277;22035;-76
2021/12/13 11:24:10;;;;;;;267.70;194.80;;;;;;;1.70;80.37;101464.32;108688;1277;21988;-76
2021/12/13 11:26:48;;;;;;;274.30;194.60;;;;;;;1.76;80.41;101462.94;108822;1277;22786;-75
2021/12/13 11:29:18;;;;;;;269.00;191.60;;;;;;;1.83;80.41;101469.83;108822;1277;23645;-75
2021/12/13 11:31:53;;;;;;;;;;;;;;;1.90;80.39;101473.80;108781;1277;21975;-75
2021/12/13 11:34:46;;;;;;;260.10;181.40;;;;;;;1.85;80.20;101477.52;108832;1277;22881;-75
2021/12/13 11:37:27;;;;;;;255.20;182.60;;;;;;;1.89;80.27;101476.99;108837;1275;23637;-75
2021/12/13 11:40:39;;;;;;;263.60;183.80;;;;;;;1.92;80.03;101474.75;108840;1277;22009;-75
2021/12/13 11:43:44;;;;;;;265.40;183.60;;;;;;;1.90;79.72;101471.18;108788;1277;21982;-75
2021/12/13 11:47:11;;;;;;;259.80;187.40;;;;;;;1.87;79.67;101472.20;108949;1277;21980;-77
2021/12/13 11:50:27;;;;;;;259.60;182.70;;;;;;;1.88;79.88;101470.94;108775;1278;22047;-76
2021/12/13 11:53:20;;;;;;;264.60;189.10;;;;;;;1.88;79.82;101466.24;108896;1277;22041;-76
2021/12/13 11:56:10;;;;;;;252.20;181.40;;;;;;;1.89;79.85;101465.86;108835;1277;24334;-75
2021/12/13 11:59:32;;;;;;;248.20;178.20;;;;;;;1.92;79.84;101468.70;108500;1283;22236;-76
2021/12/13 12:02:43;;;;;;;270.20;188.90;;;;;;;1.95;79.85;101466.42;108563;1283;23813;-75
2021/12/13 12:06:09;;;;;;;295.50;203.50;;;;;;;2.01;80.04;101466.09;108477;1283;24192;-76
2021/12/13 12:09:02;;;;;;;279.50;196.00;;;;;;;2.08;80.04;101469.02;108014;1290;21999;-75
2021/12/13 12:12:29;;;;;;;262.00;189.80;;;;;;;2.14;80.08;101469.69;108016;1289;23061;-76
2021/12/13 12:15:01;;;;;;;283.60;211.50;;;;;;;2.20;79.91;101467.95;108000;1289;22111;-76
2021/12/13 12:17:33;;;;;;;273.30;203.00;;;;;;;2.24;79.83;101464.45;108271;1286;21995;-77
2021/12/13 12:20:05;;;;;;;;;;;;;;;2.28;79.91;101466.12;108429;1285;23035;-75
2021/12/13 12:22:57;;;;;;;285.90;202.70;;;;;;;2.26;79.95;101465.70;108402;1285;22297;-75
2021/12/13 12:25:32;;;;;;;287.50;208.50;;;;;;;2.30;79.97;101464.94;108309;1287;22027;-76
2021/12/13 12:28:18;;;;;;;268.30;187.40;;;;;;;2.39;80.13;101466.36;108406;1284;21996;-76
2021/12/13 12:30:55;;;;;;;254.60;181.60;;;;;;;2.46;79.92;101472.05;108387;1284;23631;-75
2021/12/13 12:33:37;;;;;;;262.10;182.40;;;;;;;2.50;79.83;101476.85;108378;1288;22039;-75
2021/12/13 12:36:26;;;;;;;266.80;183.10;;;;;;;2.54;79.67;101468.09;108028;1288;23050;-75
2021/12/13 12:39:06;;;;;;;278.20;189.80;;;;;;;2.55;79.51;101469.45;108267;1282;21983;-77
2021/12/13 12:41:43;;;;;;;263.50;189.10;;;;;;;2.57;79.39;101470.17;108643;1281;22088;-75
2021/12/13 12:45:16;;;;;;;282.30;193.80;;;;;;;2.56;79.19;101468.84;108550;1281;22000;-77
2021/12/13 12:47:45;;;;;;;288.80;199.70;;;;;;;2.54;79.03;101467.22;108548;1281;22487;-75
2021/12/13 12:50:18;;;;;;;361.30;264.30;;;;;;;2.54;79.10;101468.13;108683;1278;23605;-78
2021/12/13 12:52:49;;;;;;;411.20;298.80;;;;;;;2.55;79.10;101469.98;108344;1284;22050;-77
2021/12/13 12:55:24;;;;;;;324.00;234.80;;;;;;;2.56;79.12;101473.92;108346;1286;22805;-76
2021/12/13 12:57:57;;;;;;;414.00;264.50;;;;;;;2.56;79.08;101473.20;108261;1286;21996;-77
2021/12/13 13:00:30;;;;;;;315.00;213.50;;;;;;;2.55;78.79;101472.24;108223;1286;23667;-76
2021/12/13 13:03:00;;;;;;;316.10;222.20;;;;;;;2.47;78.42;101472.33;108195;1286;23688;-77
2021/12/13 13:05:31;;;;;;;275.50;190.60;;;;;;;2.38;78.34;101472.48;108211;1286;21993;-75
2021/12/13 13:08:01;;;;;;;298.30;209.20;;;;;;;2.28;78.49;101472.00;108174;1286;22484;-75
2021/12/13 13:13:11;;;;;;;291.00;206.70;;;;;;;2.07;78.72;101477.23;108465;1282;24371;-75
2021/12/13 13:15:48;;;;;;;320.50;247.50;;;;;;;2.04;79.28;101478.23;108320;1287;21996;-77
2021/12/13 13:18:26;;;;;;;319.00;238.00;;;;;;;2.05;79.67;101484.45;108255;1287;22785;-76
2021/12/13 13:21:05;;;;;;;325.60;226.20;;;;;;;2.00;79.23;101485.23;108228;1287;23006;-76
2021/12/13 13:23:44;;;;;;;324.50;231.70;;;;;;;1.90;79.04;101492.55;108275;1288;22002;-76
2021/12/13 13:26:27;;;;;;;304.90;213.40;;;;;;;1.85;79.20;101489.88;108297;1287;21976;-75
2021/12/13 13:29:07;;;;;;;313.80;220.40;;;;;;;1.82;79.31;101491.97;108364;1283;22854;-76
2021/12/13 13:32:09;;;;;;;303.00;208.60;;;;;;;1.74;79.18;101491.67;108102;1286;22011;-76
2021/12/13 13:34:53;;;;;;;282.20;201.80;;;;;;;1.65;79.10;101490.27;108401;1285;23709;-76